Jupiter Spirit — A8ZC2 — position and weather

sailwx.info

Track history (hours):
 
Tides and Currents Weather Stations Pressure Air Temp Water Temp Dewpoint Dewpoint Depression Visibility Wind Speed Wind Dir Waves Ship Positions

Jupiter Spirit

Last reported at 2016-Jun-18 16:33 UTC. Time now 2016-Jun-25 12:27 UTC.
Position N 33°40' W 122°56'.

Length 183 m; draft 7.8 m.

Type: Cargo ship. MMSI: 636015173.

Date/timePositionNaut miles runAvg speedWind from/ knotsBaromVisibWave heightAir tempDewpointWater temp
2016-Jun-18 16:33N 33°40' W 122°56'1919.4
2016-Jun-18 15:33N 33°40' W 122°33'18118.1
2016-Jun-18 05:33N 33°38' W 118°56'1211.5
2016-Jun-18 04:33N 33°38' W 118°42'1111.5
2016-Jun-18 03:33N 33°38' W 118°28'1110.6
2016-Jun-18 02:33N 33°40' W 118°16'5 5.3
2016-Jun-18 01:33N 33°46' W 118°15'0 0.3
2016-Jun-18 00:22N 33°46' W 118°15'0 0.0
2016-Jun-17 23:25N 33°46' W 118°15'0 0.0
2016-Jun-17 22:28N 33°46' W 118°15'0 0.0
2016-Jun-17 21:28N 33°46' W 118°15'0 0.0
2016-Jun-17 20:31N 33°46' W 118°15'0 0.0
2016-Jun-17 19:31N 33°46' W 118°15'0 0.0
2016-Jun-17 18:31N 33°46' W 118°15'0 0.0
2016-Jun-17 17:31N 33°46' W 118°15'0 0.0
2016-Jun-17 16:31N 33°46' W 118°15'0 0.0
2016-Jun-17 15:31N 33°46' W 118°15'0 0.0
2016-Jun-17 14:31N 33°46' W 118°15'0 0.0
2016-Jun-17 13:31N 33°46' W 118°15'0 0.0
2016-Jun-17 12:31N 33°46' W 118°15'2 2.5
2016-Jun-17 11:33N 33°44' W 118°16'6 5.7
2016-Jun-17 10:33N 33°38' W 118°16'9 9.5
2016-Jun-17 09:33N 33°37' W 118°27'1211.5
2016-Jun-17 08:33N 33°37' W 118°41'1211.6
2016-Jun-17 07:32N 33°37' W 118°55'9214.3
2016-Jun-17 01:07N 33°38' W 120°45'  
Track history (hours):
 
Tides and Currents Weather Stations Pressure Air Temp Water Temp Dewpoint Dewpoint Depression Visibility Wind Speed Wind Dir Waves Ship Positions

Jupiter Spirit

Last reported at 2016-Jun-18 16:33 UTC. Time now 2016-Jun-25 12:27 UTC.
Position N 33°40' W 122°56'.

Length 183 m; draft 7.8 m.

Type: Cargo ship. MMSI: 636015173.

Date/timePositionNaut miles runAvg speedWind from/ knotsBaromVisibWave heightAir tempDewpointWater temp
2016-Jun-18 16:33N 33°40' W 122°56'1919.4
2016-Jun-18 15:33N 33°40' W 122°33'18118.1
2016-Jun-18 05:33N 33°38' W 118°56'1211.5
2016-Jun-18 04:33N 33°38' W 118°42'1111.5
2016-Jun-18 03:33N 33°38' W 118°28'1110.6
2016-Jun-18 02:33N 33°40' W 118°16'5 5.3
2016-Jun-18 01:33N 33°46' W 118°15'0 0.3
2016-Jun-18 00:22N 33°46' W 118°15'0 0.0
2016-Jun-17 23:25N 33°46' W 118°15'0 0.0
2016-Jun-17 22:28N 33°46' W 118°15'0 0.0
2016-Jun-17 21:28N 33°46' W 118°15'0 0.0
2016-Jun-17 20:31N 33°46' W 118°15'0 0.0
2016-Jun-17 19:31N 33°46' W 118°15'0 0.0
2016-Jun-17 18:31N 33°46' W 118°15'0 0.0
2016-Jun-17 17:31N 33°46' W 118°15'0 0.0
2016-Jun-17 16:31N 33°46' W 118°15'0 0.0
2016-Jun-17 15:31N 33°46' W 118°15'0 0.0
2016-Jun-17 14:31N 33°46' W 118°15'0 0.0
2016-Jun-17 13:31N 33°46' W 118°15'0 0.0
2016-Jun-17 12:31N 33°46' W 118°15'2 2.5
2016-Jun-17 11:33N 33°44' W 118°16'6 5.7
2016-Jun-17 10:33N 33°38' W 118°16'9 9.5
2016-Jun-17 09:33N 33°37' W 118°27'1211.5
2016-Jun-17 08:33N 33°37' W 118°41'1211.6
2016-Jun-17 07:32N 33°37' W 118°55'9214.3
2016-Jun-17 01:07N 33°38' W 120°45'  

Dump ship's entire track history